createdAt,value
2022-08-18T00:00:20.257Z,0
2022-08-18T00:01:19.016Z,0
2022-08-18T00:02:21.982Z,0
2022-08-18T00:03:54.132Z,0
2022-08-18T00:04:34.973Z,0
2022-08-18T00:05:24.633Z,0
2022-08-18T00:06:28.561Z,0
2022-08-18T00:07:26.158Z,0
2022-08-18T00:08:26.749Z,0
2022-08-18T00:09:32.033Z,0
2022-08-18T00:10:28.938Z,0
2022-08-18T00:11:41.123Z,0
2022-08-18T00:12:31.127Z,0
2022-08-18T00:13:31.724Z,0
2022-08-18T00:14:32.324Z,0
2022-08-18T00:15:32.922Z,0
2022-08-18T00:16:34.514Z,0
2022-08-18T00:17:35.111Z,0
2022-08-18T00:18:35.709Z,0
2022-08-18T00:19:45.661Z,0
2022-08-18T00:20:37.900Z,0
2022-08-18T00:21:38.501Z,0
2022-08-18T00:22:39.097Z,0
2022-08-18T00:23:39.694Z,0
2022-08-18T00:24:40.292Z,0
2022-08-18T00:25:41.883Z,0
2022-08-18T00:26:42.482Z,0
2022-08-18T00:27:44.073Z,0
2022-08-18T00:28:44.684Z,0
2022-08-18T00:29:45.270Z,0
2022-08-18T00:30:45.868Z,0
2022-08-18T00:31:47.470Z,0
2022-08-18T00:32:48.058Z,0
2022-08-18T00:33:48.658Z,0
2022-08-18T00:34:49.257Z,0
2022-08-18T00:35:49.874Z,0
2022-08-18T00:36:50.475Z,0
2022-08-18T00:37:51.222Z,0
2022-08-18T00:38:51.881Z,0
2022-08-18T00:39:52.517Z,0
2022-08-18T00:40:53.090Z,0
2022-08-18T00:41:53.687Z,0
2022-08-18T00:42:54.285Z,0
2022-08-18T00:43:54.886Z,0
2022-08-18T00:44:55.484Z,0
2022-08-18T00:45:56.084Z,0
2022-08-18T00:46:57.675Z,0
2022-08-18T00:47:58.450Z,0
2022-08-18T00:48:59.241Z,0
2022-08-18T00:49:59.840Z,0
2022-08-18T00:51:00.440Z,0
2022-08-18T00:52:01.062Z,0
2022-08-18T00:53:01.680Z,0
2022-08-18T00:54:02.277Z,0
2022-08-18T00:55:02.881Z,0
2022-08-18T00:56:03.472Z,0
2022-08-18T00:57:04.957Z,0
2022-08-18T00:58:05.556Z,0
2022-08-18T00:59:06.155Z,0
2022-08-18T01:00:06.752Z,0
2022-08-18T01:01:07.381Z,0
2022-08-18T01:02:07.992Z,0
2022-08-18T01:03:09.586Z,0
2022-08-18T01:04:10.182Z,0
2022-08-18T01:05:10.782Z,0
2022-08-18T01:06:11.382Z,0
2022-08-18T01:07:11.981Z,0
2022-08-18T01:08:12.581Z,0
2022-08-18T01:09:13.179Z,0
2022-08-18T01:10:13.780Z,0
2022-08-18T01:11:14.379Z,0
2022-08-18T01:12:27.943Z,0
2022-08-18T01:13:15.592Z,0
2022-08-18T01:14:16.190Z,0
2022-08-18T01:15:28.093Z,0
2022-08-18T01:16:18.383Z,0
2022-08-18T01:17:18.980Z,0
2022-08-18T01:18:19.579Z,0
2022-08-18T01:19:20.176Z,0
2022-08-18T01:20:20.776Z,0
2022-08-18T01:21:21.396Z,0
2022-08-18T01:22:21.999Z,0
2022-08-18T01:23:22.595Z,0
2022-08-18T01:24:23.198Z,0
2022-08-18T01:25:26.101Z,0
2022-08-18T01:26:25.389Z,0
2022-08-18T01:27:25.987Z,0
2022-08-18T01:28:26.590Z,0
2022-08-18T01:29:27.185Z,0
2022-08-18T01:30:27.786Z,0
2022-08-18T01:31:28.385Z,0
2022-08-18T01:32:28.985Z,0
2022-08-18T01:33:30.017Z,0
2022-08-18T01:34:30.923Z,0
2022-08-18T01:35:38.276Z,0
2022-08-18T01:36:32.139Z,0
2022-08-18T01:37:32.740Z,0
2022-08-18T01:38:33.344Z,0
2022-08-18T01:41:21.186Z,0
2022-08-18T01:41:24.227Z,0
2022-08-18T01:41:37.188Z,0
2022-08-18T01:42:37.770Z,0
2022-08-18T01:43:38.370Z,0
2022-08-18T01:44:38.973Z,0
2022-08-18T01:45:39.575Z,0
2022-08-18T01:46:40.178Z,0
2022-08-18T01:47:58.354Z,0
2022-08-18T01:48:42.388Z,0
2022-08-18T01:49:42.988Z,0
2022-08-18T01:50:43.589Z,0
2022-08-18T01:51:44.186Z,0
2022-08-18T01:52:44.787Z,0
2022-08-18T01:53:45.387Z,0
2022-08-18T01:54:45.990Z,0
2022-08-18T01:55:47.580Z,0
2022-08-18T01:56:48.182Z,0
2022-08-18T01:57:48.808Z,0
2022-08-18T01:58:49.372Z,0
2022-08-18T01:59:49.987Z,0
2022-08-18T02:00:50.589Z,0
2022-08-18T02:01:53.279Z,0
2022-08-18T02:02:57.974Z,0
2022-08-18T02:04:06.091Z,0
2022-08-18T02:04:55.970Z,0
2022-08-18T02:05:56.570Z,0
2022-08-18T02:06:57.458Z,0
2022-08-18T02:07:58.058Z,0
2022-08-18T02:08:58.657Z,0
2022-08-18T02:10:00.203Z,0
2022-08-18T02:11:00.814Z,0
2022-08-18T02:12:01.419Z,0
2022-08-18T02:13:02.011Z,0
2022-08-18T02:14:02.623Z,0
2022-08-18T02:15:03.214Z,0
2022-08-18T02:16:03.814Z,0
2022-08-18T02:17:04.426Z,0
2022-08-18T02:18:05.026Z,0
2022-08-18T02:19:05.615Z,0
2022-08-18T02:20:06.215Z,0
2022-08-18T02:21:06.815Z,0
2022-08-18T02:22:07.417Z,0
2022-08-18T02:23:08.016Z,0
2022-08-18T02:24:08.617Z,0
2022-08-18T02:25:09.218Z,0
2022-08-18T02:26:09.838Z,0
2022-08-18T02:27:10.443Z,0
2022-08-18T02:28:11.042Z,0
2022-08-18T02:29:11.643Z,0
2022-08-18T02:30:12.242Z,0
2022-08-18T02:31:12.846Z,0
2022-08-18T02:32:13.445Z,0
2022-08-18T02:33:14.048Z,0
2022-08-18T02:34:14.646Z,0
2022-08-18T02:35:15.246Z,0
2022-08-18T02:36:15.845Z,0
2022-08-18T02:37:16.447Z,0
2022-08-18T02:38:17.474Z,0
2022-08-18T02:39:18.086Z,0
2022-08-18T02:40:18.755Z,0
2022-08-18T02:41:19.301Z,0
2022-08-18T02:42:19.902Z,0
2022-08-18T02:43:20.506Z,0
2022-08-18T02:44:21.107Z,0
2022-08-18T02:45:21.708Z,0
2022-08-18T02:46:22.308Z,0
2022-08-18T02:47:23.903Z,0
2022-08-18T02:48:24.502Z,0
2022-08-18T02:49:25.105Z,0
2022-08-18T02:50:25.701Z,0
2022-08-18T02:51:26.301Z,0
2022-08-18T02:52:26.903Z,0
2022-08-18T02:53:27.504Z,0
2022-08-18T02:54:28.106Z,0
2022-08-18T02:55:28.704Z,0
2022-08-18T02:56:40.784Z,0
2022-08-18T02:57:30.902Z,0
2022-08-18T02:58:33.652Z,0
2022-08-18T02:59:33.626Z,0
2022-08-18T03:00:34.247Z,0
2022-08-18T03:01:34.937Z,0
2022-08-18T03:02:35.502Z,0
2022-08-18T03:03:36.101Z,0
2022-08-18T03:04:36.701Z,0
2022-08-18T03:05:37.303Z,0
2022-08-18T03:06:37.923Z,0
2022-08-18T03:07:40.120Z,0
2022-08-18T03:08:40.134Z,0
2022-08-18T03:09:40.737Z,0
2022-08-18T03:10:41.338Z,0
2022-08-18T03:11:42.672Z,0
2022-08-18T03:12:43.531Z,0
2022-08-18T03:13:44.136Z,0
2022-08-18T03:14:44.733Z,0
2022-08-18T03:15:45.355Z,0
2022-08-18T03:16:54.180Z,0
2022-08-18T03:17:47.568Z,0
2022-08-18T03:18:48.137Z,0
2022-08-18T03:19:48.738Z,0
2022-08-18T03:20:50.333Z,0
2022-08-18T03:21:50.939Z,0
2022-08-18T03:22:51.535Z,0
2022-08-18T03:24:00.635Z,0
2022-08-18T03:24:53.731Z,0
2022-08-18T03:25:54.332Z,0
2022-08-18T03:26:54.935Z,0
2022-08-18T03:27:55.534Z,0
2022-08-18T03:28:56.132Z,0
2022-08-18T03:29:56.733Z,0
2022-08-18T03:30:58.326Z,0
2022-08-18T03:31:58.939Z,0
2022-08-18T03:32:59.529Z,0
2022-08-18T03:34:00.132Z,0
2022-08-18T03:35:00.734Z,0
2022-08-18T03:36:01.337Z,0
2022-08-18T03:37:01.937Z,0
2022-08-18T03:38:02.541Z,0
2022-08-18T03:39:03.162Z,0
2022-08-18T03:40:03.870Z,0
2022-08-18T03:41:04.508Z,0
2022-08-18T03:42:05.111Z,0
2022-08-18T03:43:05.712Z,0
2022-08-18T03:44:07.309Z,0
2022-08-18T03:45:17.862Z,0
2022-08-18T03:46:09.506Z,0
2022-08-18T03:47:10.104Z,0
2022-08-18T03:48:10.710Z,0
2022-08-18T03:49:11.310Z,0
2022-08-18T03:50:14.200Z,0
2022-08-18T03:51:13.508Z,0
2022-08-18T03:52:14.112Z,0
2022-08-18T03:53:14.716Z,0
2022-08-18T03:54:15.320Z,0
2022-08-18T03:55:15.918Z,0
2022-08-18T03:56:17.749Z,0
2022-08-18T03:57:18.117Z,0
2022-08-18T03:58:18.720Z,0
2022-08-18T03:59:19.324Z,0
2022-08-18T04:00:19.927Z,0
2022-08-18T04:01:26.286Z,0
2022-08-18T04:02:22.128Z,0
2022-08-18T04:03:22.723Z,0
2022-08-18T04:04:23.329Z,0
2022-08-18T04:05:23.926Z,0
2022-08-18T04:06:30.132Z,0
2022-08-18T04:07:26.125Z,0
2022-08-18T04:08:26.728Z,5
2022-08-18T04:09:27.331Z,5
2022-08-18T04:10:27.933Z,5
2022-08-18T04:11:28.536Z,5
2022-08-18T04:12:30.132Z,5
2022-08-18T04:13:30.737Z,5
2022-08-18T04:14:31.356Z,5
2022-08-18T04:15:31.959Z,5
2022-08-18T04:16:32.561Z,5
2022-08-18T04:17:33.163Z,5
2022-08-18T04:18:33.767Z,11
2022-08-18T04:19:34.370Z,11
2022-08-18T04:20:34.973Z,11
2022-08-18T04:21:35.576Z,16
2022-08-18T04:22:36.176Z,16
2022-08-18T04:23:43.784Z,16
2022-08-18T04:24:38.377Z,16
2022-08-18T04:25:39.973Z,22
2022-08-18T04:26:40.578Z,22
2022-08-18T04:27:41.179Z,22
2022-08-18T04:28:41.783Z,28
2022-08-18T04:29:42.384Z,28
2022-08-18T04:30:42.988Z,28
2022-08-18T04:31:43.591Z,33
2022-08-18T04:32:44.198Z,39
2022-08-18T04:33:44.822Z,39
2022-08-18T04:34:45.425Z,39
2022-08-18T04:35:46.030Z,45
2022-08-18T04:36:46.636Z,45
2022-08-18T04:37:47.239Z,45
2022-08-18T04:38:47.842Z,56
2022-08-18T04:39:48.511Z,56
2022-08-18T04:40:49.168Z,61
2022-08-18T04:41:49.771Z,67
2022-08-18T04:42:50.376Z,73
2022-08-18T04:43:50.981Z,73
2022-08-18T04:44:51.586Z,73
2022-08-18T04:45:52.194Z,78
2022-08-18T04:46:52.796Z,84
2022-08-18T04:47:53.647Z,78
2022-08-18T04:48:54.354Z,78
2022-08-18T04:49:54.959Z,73
2022-08-18T04:50:55.564Z,73
2022-08-18T04:52:34.275Z,78
2022-08-18T04:52:57.767Z,84
2022-08-18T04:53:58.368Z,84
2022-08-18T04:54:58.975Z,84
2022-08-18T04:55:59.578Z,73
2022-08-18T04:57:00.183Z,78
2022-08-18T04:58:00.789Z,95
2022-08-18T04:59:01.411Z,95
2022-08-18T05:00:02.015Z,90
2022-08-18T05:01:02.665Z,90
2022-08-18T05:02:03.280Z,106
2022-08-18T05:03:03.890Z,123
2022-08-18T05:04:04.512Z,123
2022-08-18T05:05:05.127Z,118
2022-08-18T05:06:05.744Z,135
2022-08-18T05:07:06.350Z,146
2022-08-18T05:08:06.954Z,146
2022-08-18T05:09:07.562Z,157
2022-08-18T05:10:08.185Z,151
2022-08-18T05:11:08.793Z,163
2022-08-18T05:12:09.396Z,174
2022-08-18T05:13:10.002Z,185
2022-08-18T05:14:10.606Z,168
2022-08-18T05:15:11.213Z,191
2022-08-18T05:16:16.844Z,213
2022-08-18T05:17:13.421Z,219
2022-08-18T05:18:14.025Z,241
2022-08-18T05:19:15.625Z,247
2022-08-18T05:20:16.244Z,275
2022-08-18T05:21:17.844Z,286
2022-08-18T05:22:18.524Z,270
2022-08-18T05:23:19.077Z,241
2022-08-18T05:24:20.679Z,247
2022-08-18T05:25:21.279Z,253
2022-08-18T05:26:21.889Z,258
2022-08-18T05:27:22.489Z,275
2022-08-18T05:28:23.095Z,309
2022-08-18T05:29:23.701Z,331
2022-08-18T05:30:24.457Z,292
2022-08-18T05:31:25.058Z,275
2022-08-18T05:32:40.863Z,298
2022-08-18T05:33:27.258Z,309
2022-08-18T05:34:27.864Z,343
2022-08-18T05:35:28.467Z,281
2022-08-18T05:36:29.073Z,281
2022-08-18T05:37:29.677Z,331
2022-08-18T05:38:30.296Z,331
2022-08-18T05:39:30.949Z,337
2022-08-18T05:40:31.518Z,343
2022-08-18T05:41:32.119Z,320
2022-08-18T05:42:32.725Z,343
2022-08-18T05:43:33.350Z,382
2022-08-18T05:44:33.954Z,365
2022-08-18T05:45:34.559Z,410
2022-08-18T05:46:35.183Z,421
2022-08-18T05:47:35.783Z,405
2022-08-18T05:48:41.231Z,405
2022-08-18T05:49:37.008Z,461
2022-08-18T05:50:37.630Z,438
2022-08-18T05:51:38.236Z,444
2022-08-18T05:52:38.843Z,466
2022-08-18T05:53:39.449Z,483
2022-08-18T05:54:41.049Z,500
2022-08-18T05:55:44.762Z,523
2022-08-18T05:56:42.273Z,523
2022-08-18T05:57:42.919Z,562
2022-08-18T05:58:43.504Z,601
2022-08-18T05:59:44.111Z,613
2022-08-18T06:00:45.709Z,506
2022-08-18T06:01:46.315Z,590
2022-08-18T06:02:46.989Z,691
2022-08-18T06:03:47.575Z,652
2022-08-18T06:04:48.190Z,658
2022-08-18T06:05:48.787Z,618
2022-08-18T06:06:49.425Z,601
2022-08-18T06:07:50.262Z,590
2022-08-18T06:08:50.931Z,568
2022-08-18T06:09:51.537Z,607
2022-08-18T06:10:52.141Z,545
2022-08-18T06:11:52.742Z,545
2022-08-18T06:12:53.349Z,607
2022-08-18T06:13:59.525Z,534
2022-08-18T06:14:54.594Z,613
2022-08-18T06:15:55.195Z,590
2022-08-18T06:16:55.803Z,500
2022-08-18T06:17:56.405Z,478
2022-08-18T06:18:57.012Z,528
2022-08-18T06:19:57.615Z,466
2022-08-18T06:20:58.221Z,416
2022-08-18T06:21:58.844Z,421
2022-08-18T06:22:59.457Z,427
2022-08-18T06:24:00.082Z,410
2022-08-18T06:25:00.681Z,421
2022-08-18T06:26:01.286Z,472
2022-08-18T06:27:01.891Z,517
2022-08-18T06:28:02.496Z,551
2022-08-18T06:29:03.105Z,534
2022-08-18T06:30:03.735Z,528
2022-08-18T06:31:04.332Z,551
2022-08-18T06:32:04.935Z,506
2022-08-18T06:33:05.540Z,461
2022-08-18T06:34:06.144Z,433
2022-08-18T06:35:06.751Z,388
2022-08-18T06:36:07.355Z,421
2022-08-18T06:37:08.954Z,410
2022-08-18T06:38:09.558Z,399
2022-08-18T06:39:10.164Z,393
2022-08-18T06:40:10.832Z,421
2022-08-18T06:41:38.045Z,393
2022-08-18T06:42:13.005Z,320
2022-08-18T06:43:13.623Z,331
2022-08-18T06:44:14.229Z,343
2022-08-18T06:45:14.832Z,326
2022-08-18T06:46:15.435Z,315
2022-08-18T06:47:16.061Z,320
2022-08-18T06:48:16.681Z,348
2022-08-18T06:49:17.286Z,343
2022-08-18T06:50:17.890Z,360
2022-08-18T06:51:18.499Z,450
2022-08-18T06:52:19.126Z,545
2022-08-18T06:53:27.859Z,601
2022-08-18T06:54:21.326Z,630
2022-08-18T06:55:21.934Z,669
2022-08-18T06:56:25.804Z,708
2022-08-18T06:57:24.156Z,680
2022-08-18T06:58:24.760Z,658
2022-08-18T06:59:25.365Z,630
2022-08-18T07:00:26.024Z,646
2022-08-18T07:01:26.640Z,770
2022-08-18T07:02:27.224Z,860
2022-08-18T07:03:27.828Z,916
2022-08-18T07:04:28.435Z,911
2022-08-18T07:05:29.044Z,928
2022-08-18T07:06:29.645Z,950
2022-08-18T07:07:39.542Z,973
2022-08-18T07:08:31.852Z,1023
2022-08-18T07:09:32.457Z,1029
2022-08-18T07:10:33.062Z,1046
2022-08-18T07:11:33.673Z,1068
2022-08-18T07:12:34.297Z,1074
2022-08-18T07:13:34.903Z,1096
2022-08-18T07:14:35.509Z,1063
2022-08-18T07:15:36.116Z,1091
2022-08-18T07:16:58.167Z,990
2022-08-18T07:17:42.491Z,1080
2022-08-18T07:18:39.917Z,1023
2022-08-18T07:19:40.526Z,1158
2022-08-18T07:20:41.129Z,1305
2022-08-18T07:21:41.736Z,1344
2022-08-18T07:22:42.342Z,1372
2022-08-18T07:23:43.761Z,1338
2022-08-18T07:24:44.366Z,1327
2022-08-18T07:25:44.970Z,1428
2022-08-18T07:26:45.575Z,1220
2022-08-18T07:27:46.215Z,1040
2022-08-18T07:28:46.807Z,995
2022-08-18T07:29:47.430Z,1136
2022-08-18T07:31:13.553Z,1012
2022-08-18T07:31:50.498Z,933
2022-08-18T07:32:51.123Z,916
2022-08-18T07:33:51.730Z,838
2022-08-18T07:34:53.179Z,877
2022-08-18T07:35:54.013Z,1012
2022-08-18T07:36:54.549Z,905
2022-08-18T07:37:55.152Z,843
2022-08-18T07:38:55.757Z,804
2022-08-18T07:39:56.389Z,793
2022-08-18T07:40:56.974Z,787
2022-08-18T07:41:57.583Z,742
2022-08-18T07:43:01.157Z,720
2022-08-18T07:43:59.782Z,697
2022-08-18T07:45:00.387Z,669
2022-08-18T07:46:00.994Z,669
2022-08-18T07:47:01.597Z,680
2022-08-18T07:48:15.836Z,686
2022-08-18T07:49:05.374Z,601
2022-08-18T07:50:27.311Z,511
2022-08-18T07:51:08.889Z,540
2022-08-18T07:52:19.971Z,573
2022-08-18T07:53:09.214Z,585
2022-08-18T07:54:25.345Z,590
2022-08-18T07:55:11.857Z,607
2022-08-18T07:56:12.484Z,579
2022-08-18T07:57:16.483Z,579
2022-08-18T07:58:14.685Z,601
2022-08-18T07:59:15.288Z,669
2022-08-18T08:00:18.877Z,568
2022-08-18T08:01:17.584Z,540
2022-08-18T08:02:18.251Z,517
2022-08-18T08:03:18.803Z,528
2022-08-18T08:04:25.665Z,545
2022-08-18T08:05:21.025Z,562
2022-08-18T08:06:21.630Z,573
2022-08-18T08:07:24.799Z,596
2022-08-18T08:08:25.402Z,663
2022-08-18T08:09:24.351Z,708
2022-08-18T08:10:24.957Z,742
2022-08-18T08:11:25.561Z,798
2022-08-18T08:12:26.166Z,855
2022-08-18T08:13:53.441Z,905
2022-08-18T08:14:28.392Z,1018
2022-08-18T08:15:28.997Z,1119
2022-08-18T08:16:29.616Z,1215
2022-08-18T08:17:30.228Z,1524
2022-08-18T08:18:30.833Z,1608
2022-08-18T08:19:56.840Z,1676
2022-08-18T08:20:32.985Z,1552
2022-08-18T08:21:32.704Z,1563
2022-08-18T08:22:33.313Z,1670
2022-08-18T08:23:33.917Z,1783
2022-08-18T08:24:34.526Z,2418
2022-08-18T08:25:46.197Z,2086
2022-08-18T08:26:36.732Z,1901
2022-08-18T08:27:37.336Z,1552
2022-08-18T08:28:37.943Z,1468
2022-08-18T08:29:38.547Z,1546
2022-08-18T08:30:39.176Z,1293
2022-08-18T08:31:40.772Z,1248
2022-08-18T08:32:41.400Z,1260
2022-08-18T08:33:42.026Z,1316
2022-08-18T08:34:42.635Z,1350
2022-08-18T08:35:49.426Z,1383
2022-08-18T08:36:44.859Z,1541
2022-08-18T08:37:45.547Z,1468
2022-08-18T08:38:46.540Z,1546
2022-08-18T08:39:47.266Z,1620
2022-08-18T08:40:47.877Z,1361
2022-08-18T08:41:48.500Z,1310
2022-08-18T08:42:49.107Z,1276
2022-08-18T08:43:49.713Z,1321
2022-08-18T08:44:59.105Z,1338
2022-08-18T08:45:52.053Z,1333
2022-08-18T08:46:52.632Z,1305
2022-08-18T08:47:53.499Z,1282
2022-08-18T08:48:54.273Z,1237
2022-08-18T08:49:59.097Z,1203
2022-08-18T08:50:56.477Z,1192
2022-08-18T08:51:57.084Z,1209
2022-08-18T08:52:57.693Z,1108
2022-08-18T08:53:58.295Z,810
2022-08-18T08:54:58.901Z,596
2022-08-18T08:56:02.393Z,534
2022-08-18T08:57:01.111Z,568
2022-08-18T08:58:01.729Z,658
2022-08-18T08:59:02.334Z,725
2022-08-18T09:00:02.943Z,748
2022-08-18T09:01:03.551Z,759
2022-08-18T09:02:04.208Z,798
2022-08-18T09:03:05.752Z,860
2022-08-18T09:04:06.354Z,945
2022-08-18T09:05:09.443Z,961
2022-08-18T09:06:08.559Z,956
2022-08-18T09:07:09.166Z,961
2022-08-18T09:08:09.767Z,978
2022-08-18T09:09:10.375Z,1141
2022-08-18T09:10:10.979Z,1293
2022-08-18T09:11:11.587Z,1389
2022-08-18T09:12:12.190Z,1468
2022-08-18T09:13:12.797Z,1485
2022-08-18T09:14:13.404Z,1485
2022-08-18T09:15:14.011Z,1580
2022-08-18T09:16:14.637Z,1378
2022-08-18T09:17:15.241Z,1203
2022-08-18T09:18:15.847Z,1147
2022-08-18T09:19:16.472Z,1102
2022-08-18T09:20:17.139Z,1074
2022-08-18T09:21:17.697Z,1085
2022-08-18T09:22:18.306Z,1091
2022-08-18T09:23:18.911Z,1125
2022-08-18T09:24:19.515Z,1192
2022-08-18T09:25:20.141Z,1276
2022-08-18T09:26:20.748Z,1355
2022-08-18T09:27:21.355Z,1400
2022-08-18T09:28:21.960Z,1417
2022-08-18T09:29:22.566Z,1428
2022-08-18T09:30:23.171Z,1445
2022-08-18T09:31:23.780Z,1456
2022-08-18T09:32:25.130Z,1445
2022-08-18T09:33:25.738Z,1479
2022-08-18T09:34:26.339Z,1350
2022-08-18T09:35:26.948Z,1282
2022-08-18T09:36:27.578Z,1209
2022-08-18T09:37:28.181Z,1125
2022-08-18T09:38:28.785Z,1001
2022-08-18T09:39:29.444Z,900
2022-08-18T09:41:00.924Z,798
2022-08-18T09:41:31.630Z,731
2022-08-18T09:42:32.242Z,725
2022-08-18T09:43:32.847Z,748
2022-08-18T09:44:34.448Z,838
2022-08-18T09:45:35.051Z,933
2022-08-18T09:46:35.665Z,1068
2022-08-18T09:47:36.404Z,1141
2022-08-18T09:48:37.011Z,1158
2022-08-18T09:49:38.120Z,1108
2022-08-18T09:50:38.929Z,1046
2022-08-18T09:51:39.807Z,1046
2022-08-18T09:52:40.881Z,1125
2022-08-18T09:53:41.481Z,1226
2022-08-18T09:54:42.088Z,1226
2022-08-18T09:55:51.936Z,1203
2022-08-18T09:56:53.475Z,1158
2022-08-18T09:57:46.498Z,1102
2022-08-18T09:58:47.119Z,1181
2022-08-18T09:59:47.737Z,1186
2022-08-18T10:00:49.337Z,1237
2022-08-18T10:01:52.152Z,1254
2022-08-18T10:02:51.733Z,1271
2022-08-18T10:03:53.159Z,1288
2022-08-18T10:04:53.765Z,1293
2022-08-18T10:05:54.370Z,1288
2022-08-18T10:06:55.970Z,1248
2022-08-18T10:07:57.570Z,1181
2022-08-18T10:08:58.448Z,1119
2022-08-18T10:10:00.832Z,1080
2022-08-18T10:11:09.071Z,1057
2022-08-18T10:12:03.049Z,1085
2022-08-18T10:13:04.650Z,1085
2022-08-18T10:14:05.254Z,1080
2022-08-18T10:15:06.856Z,1040
2022-08-18T10:17:23.676Z,905
2022-08-18T10:18:11.648Z,832
2022-08-18T10:19:12.252Z,798
2022-08-18T10:21:14.456Z,748
2022-08-18T10:23:16.669Z,703
2022-08-18T10:24:36.484Z,680
2022-08-18T10:25:22.859Z,669
2022-08-18T10:26:20.373Z,669
2022-08-18T10:27:21.144Z,658
2022-08-18T10:28:21.765Z,641
2022-08-18T10:29:22.370Z,624
2022-08-18T10:30:22.975Z,613
2022-08-18T10:31:27.433Z,601
2022-08-18T10:32:26.170Z,601
2022-08-18T10:33:26.778Z,607
2022-08-18T10:34:28.376Z,618
2022-08-18T10:35:29.296Z,635
2022-08-18T10:36:30.577Z,652
2022-08-18T10:37:31.183Z,669
2022-08-18T10:38:32.492Z,691
2022-08-18T10:39:33.152Z,725
2022-08-18T10:40:34.707Z,759
2022-08-18T10:41:36.307Z,798
2022-08-18T10:42:37.905Z,838
2022-08-18T10:43:45.749Z,883
2022-08-18T10:44:40.147Z,922
2022-08-18T10:45:40.710Z,961
2022-08-18T10:46:42.554Z,973
2022-08-18T10:47:42.911Z,984
2022-08-18T10:48:44.510Z,990
2022-08-18T10:49:46.800Z,1001
2022-08-18T10:50:46.718Z,1006
2022-08-18T10:51:58.123Z,1012
2022-08-18T10:52:51.314Z,1012
2022-08-18T10:53:50.823Z,1001
2022-08-18T10:54:54.441Z,995
2022-08-18T10:55:52.286Z,990
2022-08-18T10:56:52.866Z,995
2022-08-18T10:57:53.488Z,1006
2022-08-18T10:58:54.110Z,1029
2022-08-18T10:59:55.123Z,1063
2022-08-18T11:00:55.708Z,1119
2022-08-18T11:01:57.310Z,1192
2022-08-18T11:04:00.078Z,1333
2022-08-18T11:05:01.378Z,1400
2022-08-18T11:06:01.986Z,1456
2022-08-18T11:07:03.231Z,1501
2022-08-18T11:09:06.465Z,1603
2022-08-18T11:10:28.280Z,1625
2022-08-18T11:11:37.719Z,1625
2022-08-18T11:12:10.232Z,1636
2022-08-18T11:13:10.882Z,1642
2022-08-18T11:14:12.032Z,1665
2022-08-18T11:15:22.710Z,1681
2022-08-18T11:16:14.236Z,1693
2022-08-18T11:17:14.845Z,1715
2022-08-18T11:18:15.464Z,1743
2022-08-18T11:19:16.820Z,1811
2022-08-18T11:20:18.137Z,1878
2022-08-18T11:21:18.818Z,1935
2022-08-18T11:22:31.174Z,1980
2022-08-18T11:23:22.015Z,2013
2022-08-18T11:24:22.998Z,2058
2022-08-18T11:25:24.597Z,2148
2022-08-18T11:26:26.195Z,2418
2022-08-18T11:27:26.802Z,2503
2022-08-18T11:28:30.285Z,2801
2022-08-18T11:29:32.631Z,2700
2022-08-18T11:30:31.630Z,3228
2022-08-18T11:31:33.203Z,2638
2022-08-18T11:32:34.602Z,2311
2022-08-18T11:33:37.565Z,2334
2022-08-18T11:34:36.030Z,2441
2022-08-18T11:35:37.025Z,2373
2022-08-18T11:36:37.848Z,2188
2022-08-18T11:37:52.462Z,2340
2022-08-18T11:38:42.207Z,2598
2022-08-18T11:39:42.705Z,2075
2022-08-18T11:41:10.643Z,1935
2022-08-18T11:41:48.391Z,1895
2022-08-18T11:42:46.581Z,1890
2022-08-18T11:43:48.104Z,1873
2022-08-18T11:44:49.719Z,1755
2022-08-18T11:45:50.310Z,1665
2022-08-18T11:46:52.003Z,1636
2022-08-18T11:47:52.516Z,1687
2022-08-18T11:48:53.814Z,1760
2022-08-18T11:49:54.687Z,1800
2022-08-18T11:50:56.255Z,1822
2022-08-18T11:51:57.595Z,1811
2022-08-18T11:52:59.196Z,1805
2022-08-18T11:55:01.544Z,1749
2022-08-18T11:56:03.000Z,1721
2022-08-18T11:57:04.599Z,1698
2022-08-18T11:58:12.575Z,1704
2022-08-18T11:59:07.931Z,1755
2022-08-18T12:00:08.968Z,1828
2022-08-18T12:01:10.568Z,1946
2022-08-18T12:02:11.176Z,2075
2022-08-18T12:03:11.802Z,2075
2022-08-18T12:04:12.410Z,2053
2022-08-18T12:05:13.016Z,1985
2022-08-18T12:06:19.489Z,1884
2022-08-18T12:07:15.630Z,1822
2022-08-18T12:08:41.649Z,1771
2022-08-18T12:09:30.579Z,1721
2022-08-18T12:10:21.133Z,1693
2022-08-18T12:11:27.512Z,1710
2022-08-18T12:12:23.683Z,1771
2022-08-18T12:13:24.239Z,1845
2022-08-18T12:14:32.337Z,1940
2022-08-18T12:15:29.568Z,2036
2022-08-18T12:16:27.067Z,2115
2022-08-18T12:17:27.679Z,2205
2022-08-18T12:18:29.765Z,2295
2022-08-18T12:19:29.895Z,2649
2022-08-18T12:20:30.502Z,2570
2022-08-18T12:21:31.493Z,2643
2022-08-18T12:22:32.404Z,3706
2022-08-18T12:24:39.117Z,3830
2022-08-18T12:25:36.216Z,2908
2022-08-18T12:26:39.013Z,2880
2022-08-18T12:27:38.443Z,3600
2022-08-18T12:28:39.049Z,3150
2022-08-18T12:29:43.706Z,2171
2022-08-18T12:30:42.168Z,1878
2022-08-18T12:31:48.161Z,1625
2022-08-18T12:32:50.266Z,1468
2022-08-18T12:33:47.886Z,1361
2022-08-18T12:34:46.702Z,1305
2022-08-18T12:35:47.288Z,1288
2022-08-18T12:36:47.894Z,1271
2022-08-18T12:38:51.847Z,1175
2022-08-18T12:39:50.789Z,1125
2022-08-18T12:40:51.708Z,1091
2022-08-18T12:41:52.306Z,1074
2022-08-18T12:42:53.549Z,1063
2022-08-18T12:43:58.444Z,1057
2022-08-18T12:44:56.471Z,1074
2022-08-18T12:45:57.081Z,1102
2022-08-18T12:48:00.285Z,1125
2022-08-18T12:49:01.815Z,1119
2022-08-18T12:50:03.106Z,1113
2022-08-18T12:51:05.851Z,1113
2022-08-18T12:52:06.305Z,1130
2022-08-18T12:53:06.927Z,1158
2022-08-18T12:54:07.535Z,1209
2022-08-18T12:55:21.428Z,1265
2022-08-18T12:56:10.821Z,1338
2022-08-18T12:57:11.357Z,1395
2022-08-18T12:58:12.562Z,1445
2022-08-18T12:59:13.165Z,1473
2022-08-18T13:00:17.564Z,1479
2022-08-18T13:02:16.154Z,1456
2022-08-18T13:03:17.016Z,1451
2022-08-18T13:04:18.646Z,1440
2022-08-18T13:05:19.237Z,1417
2022-08-18T13:06:20.839Z,1389
2022-08-18T13:07:22.251Z,1361
2022-08-18T13:08:30.666Z,1321
2022-08-18T13:09:34.101Z,1293
2022-08-18T13:10:45.815Z,1243
2022-08-18T13:11:27.734Z,1203
2022-08-18T13:12:28.342Z,1164
2022-08-18T13:13:29.550Z,1158
2022-08-18T13:14:30.720Z,1164
2022-08-18T13:15:31.324Z,1181
2022-08-18T13:16:53.295Z,1198
2022-08-18T13:17:34.370Z,1220
2022-08-18T13:18:34.993Z,1260
2022-08-18T13:19:36.083Z,1288
2022-08-18T13:20:36.692Z,1338
2022-08-18T13:21:39.011Z,1372
2022-08-18T13:22:38.918Z,1417
2022-08-18T13:23:39.525Z,1462
2022-08-18T13:24:40.131Z,1496
2022-08-18T13:25:40.964Z,1530
2022-08-18T13:26:41.653Z,1518
2022-08-18T13:27:43.556Z,1501
2022-08-18T13:28:51.585Z,1485
2022-08-18T13:29:45.392Z,1451
2022-08-18T13:30:46.019Z,1451
2022-08-18T13:31:56.023Z,1485
2022-08-18T13:32:59.480Z,1586
2022-08-18T13:33:56.560Z,1755
2022-08-18T13:34:51.625Z,2053
2022-08-18T13:35:54.519Z,2188
2022-08-18T13:36:54.628Z,2221
2022-08-18T13:37:56.064Z,2261
2022-08-18T13:38:56.860Z,2542
2022-08-18T13:39:57.496Z,2728
2022-08-18T13:40:58.106Z,2925
2022-08-18T13:42:00.702Z,2621
2022-08-18T13:43:00.940Z,2486
2022-08-18T13:44:01.550Z,2570
2022-08-18T13:45:24.662Z,1996
2022-08-18T13:46:04.746Z,2008
2022-08-18T13:47:05.931Z,2266
2022-08-18T13:48:07.529Z,2936
2022-08-18T13:49:09.130Z,3105
2022-08-18T13:50:10.053Z,3200
2022-08-18T13:51:11.351Z,3346
2022-08-18T13:52:21.995Z,3414
2022-08-18T13:53:13.578Z,3352
2022-08-18T13:54:29.426Z,3307
2022-08-18T13:55:16.867Z,3217
2022-08-18T13:56:17.271Z,3121
2022-08-18T13:57:18.874Z,3223
2022-08-18T13:58:20.789Z,3318
2022-08-18T13:59:21.722Z,3442
2022-08-18T14:00:30.415Z,3510
2022-08-18T14:01:45.125Z,3566
2022-08-18T14:02:26.892Z,3600
2022-08-18T14:03:42.374Z,3600
2022-08-18T14:04:28.700Z,3583
2022-08-18T14:05:36.852Z,3594
2022-08-18T14:06:30.905Z,3600
2022-08-18T14:07:32.500Z,3605
2022-08-18T14:08:34.093Z,3639
2022-08-18T14:09:36.902Z,3628
2022-08-18T14:10:36.396Z,3645
2022-08-18T14:11:36.997Z,3622
2022-08-18T14:12:39.516Z,3853
2022-08-18T14:13:43.877Z,1575
2022-08-18T14:14:41.793Z,2576
2022-08-18T14:15:42.399Z,1918
2022-08-18T14:16:43.007Z,4055